Time;durP1;ratioP1;P1;durP2;ratioP2;P2;SDS_P1;SDS_P2;PMS_P1;PMS_P2;Temp;Humidity;BMP_temperature;BMP_pressure;BME280_temperature;BME280_humidity;BME280_pressure;Samples;Min_cycle;Max_cycle;Signal;HPM_P1;HPM_P2
2022/06/04 00:01:31;;;;;;;;;;;20.40;97.30;;;;;;5075061;28;19919;-53
2022/06/04 00:03:57;;;;;;;;;;;20.40;97.30;;;;;;5075153;28;19920;-52
2022/06/04 00:06:22;;;;;;;;;;;20.40;97.30;;;;;;5075206;28;19915;-52
2022/06/04 00:08:48;;;;;;;;;;;20.40;97.30;;;;;;5075202;28;20331;-52
2022/06/04 00:16:42;;;;;;;;;;;20.40;97.30;;;;;;5074854;28;19997;-48
2022/06/04 00:19:07;;;;;;;;;;;20.40;97.30;;;;;;5057147;28;19908;-51
2022/06/04 00:21:33;;;;;;;;;;;20.40;97.30;;;;;;5074382;28;20465;-50
2022/06/04 00:23:58;;;;;;;;;;;20.40;97.30;;;;;;5074463;28;19912;-53
2022/06/04 00:26:23;;;;;;;;;;;20.40;97.30;;;;;;5074845;28;19912;-49
2022/06/04 00:28:49;;;;;;;;;;;20.40;97.30;;;;;;5074452;28;19990;-51
2022/06/04 00:31:16;;;;;;;;;;;20.40;97.30;;;;;;5074717;28;19908;-51
2022/06/04 00:33:41;;;;;;;;;;;20.50;97.30;;;;;;5074750;28;19962;-51
2022/06/04 00:36:07;;;;;;;;;;;20.40;97.30;;;;;;5056739;28;19909;-47
2022/06/04 00:38:33;;;;;;;;;;;20.50;97.30;;;;;;5074355;28;19915;-49
2022/06/04 00:41:10;;;;;;;;;;;20.40;97.30;;;;;;5074182;28;20350;-54
2022/06/04 00:43:56;;;;;;;;;;;20.40;97.30;;;;;;5074354;28;19912;-51
2022/06/04 00:46:37;;;;;;;;;;;20.40;97.30;;;;;;5074212;28;20305;-49
2022/06/04 00:49:02;;;;;;;;;;;20.40;97.30;;;;;;5074271;28;19909;-52
2022/06/04 00:51:28;;;;;;;;;;;20.40;97.30;;;;;;5074357;28;19909;-51
2022/06/04 00:53:54;;;;;;;;;;;20.40;97.30;;;;;;5074375;28;19927;-52
2022/06/04 00:56:26;;;;;;;;;;;20.40;97.30;;;;;;5074367;28;19913;-51
2022/06/04 00:59:01;;;;;;;;;;;20.40;97.30;;;;;;5074014;28;20021;-51
2022/06/04 01:01:29;;;;;;;;;;;20.40;97.30;;;;;;5073934;28;20011;-52
2022/06/04 01:04:00;;;;;;;;;;;20.40;97.30;;;;;;5074116;28;19912;-51
2022/06/04 01:06:31;;;;;;;;;;;20.40;97.30;;;;;;5073880;28;19909;-48
2022/06/04 01:09:05;;;;;;;;;;;20.40;97.30;;;;;;5074191;28;19912;-50
2022/06/04 01:14:43;;;;;;;;;;;20.40;97.30;;;;;;5073933;28;20433;-52
2022/06/04 01:17:14;;;;;;;;;;;20.40;97.30;;;;;;5074001;28;19916;-51
2022/06/04 01:19:40;;;;;;;;;;;20.50;97.30;;;;;;5056044;28;19952;-50
2022/06/04 01:22:17;;;;;;;;;;;20.40;97.30;;;;;;5073941;28;19948;-51
2022/06/04 01:24:48;;;;;;;;;;;20.40;97.30;;;;;;5073612;28;19912;-52
2022/06/04 01:27:23;;;;;;;;;;;20.40;97.30;;;;;;5074047;28;19927;-50
2022/06/04 01:30:11;;;;;;;;;;;20.40;97.30;;;;;;5073968;28;19909;-52
2022/06/04 01:32:50;;;;;;;;;;;20.40;97.30;;;;;;5074341;28;19912;-52
2022/06/04 01:35:15;;;;;;;;;;;20.40;97.30;;;;;;5073997;28;19915;-48
2022/06/04 01:37:44;;;;;;;;;;;20.40;97.30;;;;;;5073950;28;19908;-49
2022/06/04 01:42:57;;;;;;;;;;;20.40;97.30;;;;;;5073572;28;20377;-51
2022/06/04 01:45:24;;;;;;;;;;;20.40;97.30;;;;;;5073604;28;19939;-49
2022/06/04 01:47:51;;;;;;;;;;;20.40;97.30;;;;;;5073774;28;19919;-48
2022/06/04 01:50:19;;;;;;;;;;;20.40;97.30;;;;;;5073802;28;19944;-48
2022/06/04 01:52:45;;;;;;;;;;;20.40;97.30;;;;;;5075390;28;19908;-52
2022/06/04 01:55:15;;;;;;;;;;;20.40;97.30;;;;;;5077738;28;19920;-53
2022/06/04 01:57:46;;;;;;;;;;;20.40;97.30;;;;;;5077440;28;19916;-51
2022/06/04 02:00:16;;;;;;;;;;;20.40;97.30;;;;;;5077292;28;19908;-52
2022/06/04 02:02:47;;;;;;;;;;;20.40;97.30;;;;;;5077221;28;19970;-49
2022/06/04 02:05:15;;;;;;;;;;;20.40;97.30;;;;;;5077224;28;19920;-50
2022/06/04 02:07:42;;;;;;;;;;;20.40;97.40;;;;;;5077476;28;19908;-53
2022/06/04 02:10:14;;;;;;;;;;;20.40;97.30;;;;;;5077169;28;19957;-52
2022/06/04 02:12:41;;;;;;;;;;;20.40;97.30;;;;;;5077744;28;20003;-50
2022/06/04 02:15:09;;;;;;;;;;;20.40;97.30;;;;;;5077258;28;19914;-50
2022/06/04 02:17:37;;;;;;;;;;;20.40;97.30;;;;;;5077224;28;20305;-53
2022/06/04 02:20:03;;;;;;;;;;;20.40;97.30;;;;;;5077284;28;19919;-51
2022/06/04 02:22:31;;;;;;;;;;;20.40;97.30;;;;;;5077103;28;19913;-50
2022/06/04 02:25:00;;;;;;;;;;;20.40;97.30;;;;;;5077191;28;19916;-52
2022/06/04 02:27:27;;;;;;;;;;;20.40;97.30;;;;;;5077097;28;20369;-52
2022/06/04 02:29:52;;;;;;;;;;;20.40;97.30;;;;;;5059230;28;20310;-53
2022/06/04 02:32:24;;;;;;;;;;;20.40;97.30;;;;;;5076712;28;19909;-54
2022/06/04 02:34:57;;;;;;;;;;;20.40;97.30;;;;;;5077022;28;19915;-51
2022/06/04 02:37:25;;;;;;;;;;;20.40;97.30;;;;;;5058763;28;19981;-53
2022/06/04 02:40:06;;;;;;;;;;;20.40;97.30;;;;;;5076577;28;19962;-51
2022/06/04 02:42:41;;;;;;;;;;;20.40;97.40;;;;;;5076341;28;20305;-52
2022/06/04 02:45:16;;;;;;;;;;;20.40;97.30;;;;;;5076387;28;19940;-52
2022/06/04 02:47:49;;;;;;;;;;;20.40;97.30;;;;;;5076807;28;19908;-51
2022/06/04 02:50:20;;;;;;;;;;;20.40;97.40;;;;;;5076650;28;19954;-51
2022/06/04 02:52:46;;;;;;;;;;;20.40;97.40;;;;;;5076567;28;19909;-51
2022/06/04 02:55:16;;;;;;;;;;;20.40;97.40;;;;;;5076198;28;19921;-52
2022/06/04 02:57:43;;;;;;;;;;;20.30;97.40;;;;;;5076364;28;19908;-48
2022/06/04 03:00:10;;;;;;;;;;;20.40;97.40;;;;;;5076626;28;19951;-51
2022/06/04 03:02:36;;;;;;;;;;;20.40;97.40;;;;;;5076092;28;19912;-51
2022/06/04 03:05:21;;;;;;;;;;;20.30;97.40;;;;;;5075002;28;19958;-50
2022/06/04 03:07:48;;;;;;;;;;;20.30;97.40;;;;;;5076533;28;19916;-54
2022/06/04 03:10:18;;;;;;;;;;;20.30;97.40;;;;;;5076203;28;20260;-54
2022/06/04 03:12:44;;;;;;;;;;;20.30;97.30;;;;;;5076459;28;20310;-50
2022/06/04 03:15:10;;;;;;;;;;;20.30;97.30;;;;;;5076153;28;19913;-53
2022/06/04 03:17:36;;;;;;;;;;;20.30;97.30;;;;;;5075871;28;19909;-52
2022/06/04 03:20:02;;;;;;;;;;;20.30;97.30;;;;;;5075885;28;20057;-53
2022/06/04 03:22:28;;;;;;;;;;;20.30;97.30;;;;;;5075789;28;19975;-53
2022/06/04 03:24:53;;;;;;;;;;;20.40;97.40;;;;;;5075657;28;19913;-52
2022/06/04 03:27:19;;;;;;;;;;;20.30;97.30;;;;;;5075707;28;20010;-54
2022/06/04 03:29:44;;;;;;;;;;;20.30;97.30;;;;;;5075628;28;19952;-53
2022/06/04 03:32:10;;;;;;;;;;;20.30;97.30;;;;;;5075654;28;20011;-54
2022/06/04 03:34:35;;;;;;;;;;;20.30;97.30;;;;;;5075815;28;20003;-53
2022/06/04 03:37:01;;;;;;;;;;;20.40;97.40;;;;;;5075491;28;19951;-53
2022/06/04 03:39:26;;;;;;;;;;;20.40;97.40;;;;;;5075490;28;19962;-51
2022/06/04 03:41:52;;;;;;;;;;;20.40;97.40;;;;;;5075702;28;19912;-53
2022/06/04 03:44:17;;;;;;;;;;;20.40;97.40;;;;;;5075386;28;19958;-53
2022/06/04 03:46:42;;;;;;;;;;;20.40;97.40;;;;;;5075367;28;19915;-52
2022/06/04 03:49:08;;;;;;;;;;;20.40;97.40;;;;;;5075481;28;19912;-49
2022/06/04 03:51:33;;;;;;;;;;;20.40;97.40;;;;;;5075307;28;19916;-53
2022/06/04 03:53:59;;;;;;;;;;;20.40;97.30;;;;;;5075294;28;19924;-52
2022/06/04 03:56:25;;;;;;;;;;;20.40;97.30;;;;;;5057599;28;19962;-51
2022/06/04 03:58:50;;;;;;;;;;;20.40;97.30;;;;;;5074041;28;20240;-52
2022/06/04 04:01:20;;;;;;;;;;;20.40;97.30;;;;;;5075067;28;19970;-50
2022/06/04 04:03:46;;;;;;;;;;;20.40;97.30;;;;;;5075197;28;19912;-53
2022/06/04 04:06:16;;;;;;;;;;;20.40;97.30;;;;;;5074885;28;20273;-51
2022/06/04 04:08:42;;;;;;;;;;;20.40;97.30;;;;;;5075163;28;19908;-49
2022/06/04 04:11:15;;;;;;;;;;;20.40;97.30;;;;;;5074867;28;20240;-51
2022/06/04 04:13:40;;;;;;;;;;;20.40;97.30;;;;;;5074683;28;20378;-53
2022/06/04 04:16:07;;;;;;;;;;;20.40;97.30;;;;;;5074333;28;19952;-53
2022/06/04 04:18:34;;;;;;;;;;;20.40;97.30;;;;;;5074603;28;19954;-49
2022/06/04 04:21:07;;;;;;;;;;;20.50;97.30;;;;;;5075124;28;19919;-50
2022/06/04 04:23:33;;;;;;;;;;;20.40;97.30;;;;;;5074891;28;20019;-51
2022/06/04 04:25:59;;;;;;;;;;;20.50;97.30;;;;;;5074507;28;19940;-52
2022/06/04 04:28:24;;;;;;;;;;;20.50;97.30;;;;;;5074436;28;19909;-50
2022/06/04 04:30:50;;;;;;;;;;;20.50;97.30;;;;;;5074856;28;19916;-51
2022/06/04 04:33:15;;;;;;;;;;;20.50;97.30;;;;;;5074599;28;19916;-51
2022/06/04 04:35:41;;;;;;;;;;;20.50;97.30;;;;;;5074586;28;19912;-53
2022/06/04 04:38:07;;;;;;;;;;;20.50;97.30;;;;;;5074178;28;19908;-50
2022/06/04 04:40:33;;;;;;;;;;;20.50;97.20;;;;;;5074509;28;19908;-52
2022/06/04 04:42:58;;;;;;;;;;;20.50;97.30;;;;;;5074390;28;19916;-52
2022/06/04 04:45:24;;;;;;;;;;;20.50;97.20;;;;;;5074363;28;19916;-49
2022/06/04 04:47:51;;;;;;;;;;;20.50;97.30;;;;;;5074122;28;20287;-52
2022/06/04 04:50:24;;;;;;;;;;;20.50;97.20;;;;;;5074381;28;19909;-51
2022/06/04 04:52:50;;;;;;;;;;;20.50;97.30;;;;;;5074134;28;19915;-52
2022/06/04 04:55:15;;;;;;;;;;;20.50;97.20;;;;;;5074396;28;19920;-50
2022/06/04 04:57:41;;;;;;;;;;;20.50;97.20;;;;;;5074251;28;19909;-52
2022/06/04 05:00:08;;;;;;;;;;;20.50;97.30;;;;;;5074371;28;20279;-53
2022/06/04 05:02:34;;;;;;;;;;;20.50;97.20;;;;;;5074104;28;19913;-53
2022/06/04 05:04:59;;;;;;;;;;;20.50;97.20;;;;;;5074133;28;19912;-50
2022/06/04 05:07:24;;;;;;;;;;;20.50;97.20;;;;;;5073825;28;19967;-51
2022/06/04 05:09:50;;;;;;;;;;;20.50;97.20;;;;;;5074095;28;19908;-55
2022/06/04 05:12:15;;;;;;;;;;;20.50;97.20;;;;;;5073803;28;19909;-52
2022/06/04 05:14:41;;;;;;;;;;;20.50;97.20;;;;;;5055997;28;20003;-50
2022/06/04 05:17:07;;;;;;;;;;;20.50;97.20;;;;;;5073706;28;20333;-49
2022/06/04 05:19:32;;;;;;;;;;;20.50;97.20;;;;;;5074089;28;19950;-52
2022/06/04 05:21:58;;;;;;;;;;;20.50;97.20;;;;;;5073642;28;19913;-54
2022/06/04 05:24:28;;;;;;;;;;;20.50;97.20;;;;;;5073729;28;20290;-51
2022/06/04 05:26:54;;;;;;;;;;;20.50;97.20;;;;;;5073158;28;19999;-51
2022/06/04 05:29:20;;;;;;;;;;;20.50;97.30;;;;;;5073761;28;19912;-52
2022/06/04 05:31:46;;;;;;;;;;;20.50;97.20;;;;;;5073628;28;19969;-51
2022/06/04 05:34:12;;;;;;;;;;;20.50;97.20;;;;;;5073786;28;19913;-51
2022/06/04 05:36:38;;;;;;;;;;;20.50;97.20;;;;;;5055931;28;20315;-50
2022/06/04 05:39:05;;;;;;;;;;;20.50;97.20;;;;;;5074276;28;19908;-55
2022/06/04 05:41:30;;;;;;;;;;;20.50;97.20;;;;;;5073806;28;20011;-53
2022/06/04 05:43:56;;;;;;;;;;;20.50;97.20;;;;;;5073751;28;20345;-52
2022/06/04 05:46:22;;;;;;;;;;;20.50;97.30;;;;;;5073529;28;19908;-53
2022/06/04 05:48:47;;;;;;;;;;;20.50;97.20;;;;;;5055714;28;19950;-53
2022/06/04 05:51:15;;;;;;;;;;;20.50;97.30;;;;;;5073551;28;19912;-52
2022/06/04 05:53:40;;;;;;;;;;;20.50;97.30;;;;;;5073043;28;20363;-52
2022/06/04 05:56:25;;;;;;;;;;;20.50;97.30;;;;;;5073414;28;19908;-54
2022/06/04 05:58:52;;;;;;;;;;;20.50;97.30;;;;;;5073544;28;19915;-51
2022/06/04 06:01:19;;;;;;;;;;;20.50;97.30;;;;;;5073073;28;20393;-53
2022/06/04 06:03:45;;;;;;;;;;;20.50;97.30;;;;;;5073193;28;19948;-53
2022/06/04 06:06:12;;;;;;;;;;;20.50;97.30;;;;;;5073150;28;19916;-53
2022/06/04 06:08:37;;;;;;;;;;;20.50;97.30;;;;;;5073327;28;20337;-53
2022/06/04 06:11:05;;;;;;;;;;;20.50;97.30;;;;;;5073213;28;20378;-53
2022/06/04 06:13:31;;;;;;;;;;;20.50;97.30;;;;;;5073097;28;20265;-50
2022/06/04 06:15:56;;;;;;;;;;;20.50;97.30;;;;;;5073152;28;19959;-51
2022/06/04 06:18:22;;;;;;;;;;;20.50;97.30;;;;;;5073228;28;19909;-54
2022/06/04 06:20:47;;;;;;;;;;;20.50;97.30;;;;;;5073068;28;19955;-51
2022/06/04 06:23:13;;;;;;;;;;;20.50;97.30;;;;;;5072846;28;19951;-50
2022/06/04 06:25:38;;;;;;;;;;;20.50;97.30;;;;;;5073313;28;19927;-49
2022/06/04 06:28:04;;;;;;;;;;;20.50;97.30;;;;;;5073527;28;19908;-51
2022/06/04 06:30:30;;;;;;;;;;;20.50;97.40;;;;;;5072870;28;20295;-53
2022/06/04 06:32:58;;;;;;;;;;;20.50;97.30;;;;;;5073290;28;19916;-52
2022/06/04 06:35:23;;;;;;;;;;;20.50;97.40;;;;;;5055194;28;19908;-53
2022/06/04 06:37:49;;;;;;;;;;;20.50;97.40;;;;;;5073427;28;20510;-52
2022/06/04 06:40:15;;;;;;;;;;;20.50;97.40;;;;;;5076333;28;19909;-53
2022/06/04 06:42:41;;;;;;;;;;;20.50;97.40;;;;;;5076530;28;20408;-54
2022/06/04 06:45:07;;;;;;;;;;;20.50;97.40;;;;;;5076237;28;19943;-55
2022/06/04 06:47:33;;;;;;;;;;;20.50;97.40;;;;;;5058478;28;19909;-53
2022/06/04 06:50:00;;;;;;;;;;;20.50;97.40;;;;;;5076615;28;19909;-53
2022/06/04 06:52:25;;;;;;;;;;;20.50;97.40;;;;;;5076526;28;19909;-54
2022/06/04 06:54:51;;;;;;;;;;;20.50;97.40;;;;;;5076309;28;19945;-54
2022/06/04 06:57:17;;;;;;;;;;;20.50;97.40;;;;;;5058308;28;19916;-53
2022/06/04 06:59:45;;;;;;;;;;;20.50;97.40;;;;;;5076021;28;20342;-54
2022/06/04 07:02:11;;;;;;;;;;;20.50;97.40;;;;;;5075918;28;19952;-54
2022/06/04 07:04:36;;;;;;;;;;;20.50;97.40;;;;;;5076392;28;19913;-53
2022/06/04 07:07:02;;;;;;;;;;;20.50;97.40;;;;;;5075833;28;19909;-52
2022/06/04 07:09:33;;;;;;;;;;;20.50;97.40;;;;;;5058141;28;19916;-50
2022/06/04 07:11:59;;;;;;;;;;;20.50;97.40;;;;;;5075910;28;19978;-53
2022/06/04 07:14:25;;;;;;;;;;;20.50;97.40;;;;;;5075599;28;20426;-53
2022/06/04 07:16:51;;;;;;;;;;;20.50;97.40;;;;;;5057956;28;20019;-50
2022/06/04 07:19:17;;;;;;;;;;;20.50;97.40;;;;;;5075388;28;19908;-50
2022/06/04 07:21:43;;;;;;;;;;;20.50;97.40;;;;;;5075693;28;19912;-50
2022/06/04 07:24:09;;;;;;;;;;;20.50;97.40;;;;;;5075981;28;20268;-53
2022/06/04 07:26:34;;;;;;;;;;;20.50;97.40;;;;;;5075656;28;20250;-52
2022/06/04 07:29:00;;;;;;;;;;;20.50;97.40;;;;;;5075553;28;19919;-51
2022/06/04 07:31:26;;;;;;;;;;;20.50;97.50;;;;;;5075669;28;19970;-52
2022/06/04 07:33:53;;;;;;;;;;;20.50;97.50;;;;;;5075513;28;19909;-53
2022/06/04 07:36:23;;;;;;;;;;;20.50;97.50;;;;;;5075474;28;20252;-54
2022/06/04 07:38:48;;;;;;;;;;;20.50;97.50;;;;;;5075317;28;20330;-51
2022/06/04 07:41:18;;;;;;;;;;;20.50;97.50;;;;;;5057575;28;19955;-51
2022/06/04 07:43:44;;;;;;;;;;;20.50;97.50;;;;;;5075336;28;19931;-54
2022/06/04 07:46:10;;;;;;;;;;;20.50;97.50;;;;;;5075350;28;20336;-52
2022/06/04 07:48:35;;;;;;;;;;;20.50;97.50;;;;;;5075514;28;20359;-50
2022/06/04 07:51:01;;;;;;;;;;;20.60;97.50;;;;;;5074871;28;19914;-54
2022/06/04 07:53:27;;;;;;;;;;;20.60;97.50;;;;;;5057066;28;19912;-52
2022/06/04 07:55:52;;;;;;;;;;;20.50;97.50;;;;;;5075314;28;19912;-51
2022/06/04 07:58:18;;;;;;;;;;;20.50;97.50;;;;;;5075270;28;20361;-52
2022/06/04 08:00:43;;;;;;;;;;;20.50;97.50;;;;;;5057126;28;19909;-53
2022/06/04 08:03:09;;;;;;;;;;;20.50;97.50;;;;;;5074911;28;19957;-50
2022/06/04 08:05:36;;;;;;;;;;;20.50;97.60;;;;;;5074219;28;20147;-48
2022/06/04 08:08:02;;;;;;;;;;;20.50;97.60;;;;;;5074705;28;20355;-50
2022/06/04 08:10:27;;;;;;;;;;;20.50;97.60;;;;;;5074988;28;19935;-53
2022/06/04 08:13:14;;;;;;;;;;;20.50;97.60;;;;;;5074612;28;19936;-51
2022/06/04 08:15:42;;;;;;;;;;;20.50;97.60;;;;;;5074500;28;19919;-53
2022/06/04 08:18:08;;;;;;;;;;;20.50;97.60;;;;;;5056686;28;19955;-52
2022/06/04 08:20:34;;;;;;;;;;;20.50;97.60;;;;;;5074408;28;19952;-54
2022/06/04 08:22:59;;;;;;;;;;;20.50;97.60;;;;;;5074639;28;20410;-53
2022/06/04 08:25:25;;;;;;;;;;;20.50;97.60;;;;;;5056364;28;19990;-51
2022/06/04 08:27:50;;;;;;;;;;;20.50;97.60;;;;;;5074504;28;20347;-53
2022/06/04 08:30:16;;;;;;;;;;;20.50;97.60;;;;;;5074319;28;19915;-50
2022/06/04 08:32:41;;;;;;;;;;;20.50;97.60;;;;;;5074367;28;20343;-52
2022/06/04 08:35:07;;;;;;;;;;;20.50;97.60;;;;;;5074282;28;19909;-51
2022/06/04 08:37:33;;;;;;;;;;;20.60;97.60;;;;;;5074036;28;20021;-52
2022/06/04 08:39:59;;;;;;;;;;;20.50;97.60;;;;;;5074113;28;19908;-52
2022/06/04 08:42:38;;;;;;;;;;;20.50;97.60;;;;;;5073994;28;20326;-54
2022/06/04 08:45:04;;;;;;;;;;;20.50;97.60;;;;;;5074013;28;20007;-49
2022/06/04 08:47:33;;;;;;;;;;;20.60;97.60;;;;;;5073794;28;20424;-53
2022/06/04 08:50:25;;;;;;;;;;;20.50;97.60;;;;;;5073867;28;19908;-54
2022/06/04 08:52:52;;;;;;;;;;;20.60;97.60;;;;;;5069309;28;19915;-50
2022/06/04 08:58:14;;;;;;;;;;;20.60;97.60;;;;;;5073957;28;20010;-51
2022/06/04 09:00:51;;;;;;;;;;;20.60;97.60;;;;;;5074111;28;19912;-54
2022/06/04 09:03:17;;;;;;;;;;;20.60;97.60;;;;;;5072912;28;19912;-52
2022/06/04 09:05:45;;;;;;;;;;;20.60;97.60;;;;;;5073908;28;19916;-53
2022/06/04 09:08:14;;;;;;;;;;;20.60;97.60;;;;;;5073927;28;19914;-51
2022/06/04 09:10:41;;;;;;;;;;;20.60;97.60;;;;;;5073931;28;19908;-50
2022/06/04 09:13:17;;;;;;;;;;;20.60;97.60;;;;;;5073926;28;19954;-54
2022/06/04 09:15:48;;;;;;;;;;;20.60;97.60;;;;;;5055642;28;20003;-53
2022/06/04 09:18:16;;;;;;;;;;;20.60;97.60;;;;;;5073311;28;19915;-52
2022/06/04 09:20:46;;;;;;;;;;;20.60;97.60;;;;;;5073151;28;19991;-54
2022/06/04 09:23:19;;;;;;;;;;;20.60;97.60;;;;;;5073202;28;20007;-54
2022/06/04 09:26:04;;;;;;;;;;;20.60;97.60;;;;;;5073098;28;20420;-54
2022/06/04 09:28:39;;;;;;;;;;;20.60;97.60;;;;;;5073523;28;19912;-50
2022/06/04 09:31:04;;;;;;;;;;;20.60;97.60;;;;;;5073582;28;19934;-53
2022/06/04 09:33:42;;;;;;;;;;;20.60;97.60;;;;;;5073027;28;20377;-54
2022/06/04 09:36:11;;;;;;;;;;;20.60;97.60;;;;;;5073375;28;19954;-53
2022/06/04 09:38:37;;;;;;;;;;;20.60;97.60;;;;;;5073178;28;20325;-55
2022/06/04 09:41:04;;;;;;;;;;;20.60;97.60;;;;;;5073461;28;19916;-53
2022/06/04 09:43:30;;;;;;;;;;;20.60;97.60;;;;;;5073631;28;19924;-52
2022/06/04 09:45:58;;;;;;;;;;;20.60;97.60;;;;;;5073582;28;19909;-51
2022/06/04 09:48:32;;;;;;;;;;;20.60;97.60;;;;;;5073336;28;19909;-50
2022/06/04 09:51:00;;;;;;;;;;;20.60;97.60;;;;;;5073150;28;19921;-52
2022/06/04 09:53:33;;;;;;;;;;;20.60;97.60;;;;;;5072726;28;19999;-54
2022/06/04 09:56:06;;;;;;;;;;;20.60;97.60;;;;;;5073200;28;19913;-53
2022/06/04 09:58:33;;;;;;;;;;;20.60;97.60;;;;;;5072883;28;20347;-53
2022/06/04 10:01:00;;;;;;;;;;;20.60;97.60;;;;;;5072972;28;20343;-50
2022/06/04 10:03:27;;;;;;;;;;;20.60;97.60;;;;;;5073407;28;20011;-54
2022/06/04 10:05:52;;;;;;;;;;;20.60;97.60;;;;;;5073681;28;20367;-52
2022/06/04 10:08:21;;;;;;;;;;;20.60;97.60;;;;;;5072582;28;19908;-51
2022/06/04 10:10:46;;;;;;;;;;;20.60;97.60;;;;;;5073371;28;19913;-54
2022/06/04 10:15:57;;;;;;;;;;;20.60;97.70;;;;;;5077048;28;20397;-54
2022/06/04 10:18:23;;;;;;;;;;;20.60;97.70;;;;;;5076880;28;19909;-52
2022/06/04 10:20:53;;;;;;;;;;;20.60;97.70;;;;;;5077098;28;20377;-48
2022/06/04 10:23:19;;;;;;;;;;;20.60;97.70;;;;;;5076945;28;19958;-52
2022/06/04 10:25:57;;;;;;;;;;;20.60;97.70;;;;;;5076591;28;20293;-54
2022/06/04 10:28:41;;;;;;;;;;;20.60;97.70;;;;;;5076753;28;19909;-53
2022/06/04 10:31:25;;;;;;;;;;;20.60;97.70;;;;;;5076703;28;20289;-52
2022/06/04 10:33:59;;;;;;;;;;;20.60;97.70;;;;;;5076302;28;19977;-51
2022/06/04 10:36:30;;;;;;;;;;;20.60;97.70;;;;;;5076414;28;20008;-50
2022/06/04 10:39:16;;;;;;;;;;;20.60;97.70;;;;;;5076070;28;19915;-55
2022/06/04 10:41:46;;;;;;;;;;;20.60;97.70;;;;;;5058508;28;19916;-55
2022/06/04 10:44:41;;;;;;;;;;;20.60;97.60;;;;;;5076557;28;19912;-50
2022/06/04 10:47:28;;;;;;;;;;;20.60;97.70;;;;;;5054678;28;19908;-52
2022/06/04 10:50:05;;;;;;;;;;;20.60;97.70;;;;;;5076291;28;19909;-53
2022/06/04 10:52:40;;;;;;;;;;;20.60;97.70;;;;;;5076441;28;20005;-53
2022/06/04 10:55:18;;;;;;;;;;;20.60;97.70;;;;;;5076386;28;20023;-54
2022/06/04 10:58:03;;;;;;;;;;;20.60;97.70;;;;;;5075998;28;19909;-52
2022/06/04 11:00:30;;;;;;;;;;;20.60;97.70;;;;;;5075820;28;19912;-51
2022/06/04 11:02:59;;;;;;;;;;;20.60;97.70;;;;;;5058236;28;19912;-53
2022/06/04 11:05:43;;;;;;;;;;;20.60;97.70;;;;;;5076046;28;19913;-50
2022/06/04 11:08:18;;;;;;;;;;;20.60;97.70;;;;;;5075972;28;19962;-52
2022/06/04 11:10:48;;;;;;;;;;;20.60;97.70;;;;;;5076149;28;20038;-53
2022/06/04 11:13:23;;;;;;;;;;;20.60;97.70;;;;;;5075889;28;20299;-55
2022/06/04 11:15:54;;;;;;;;;;;20.60;97.70;;;;;;5075807;28;19915;-54
2022/06/04 11:18:34;;;;;;;;;;;20.60;97.70;;;;;;5075738;28;19916;-55
2022/06/04 11:21:15;;;;;;;;;;;20.60;97.70;;;;;;5075456;28;19913;-51
2022/06/04 11:24:00;;;;;;;;;;;20.60;97.70;;;;;;5075589;28;19982;-50
2022/06/04 11:26:26;;;;;;;;;;;20.60;97.70;;;;;;5074713;28;19948;-53
2022/06/04 11:28:51;;;;;;;;;;;20.60;97.70;;;;;;5075438;28;19966;-52
2022/06/04 11:31:28;;;;;;;;;;;20.60;97.70;;;;;;5075121;28;19908;-55
2022/06/04 11:34:12;;;;;;;;;;;20.60;97.70;;;;;;5075262;28;19913;-55
2022/06/04 11:36:40;;;;;;;;;;;20.60;97.70;;;;;;5075401;28;19948;-54
2022/06/04 11:39:06;;;;;;;;;;;20.60;97.70;;;;;;5075056;28;19915;-52
2022/06/04 11:41:41;;;;;;;;;;;20.60;97.70;;;;;;5075386;28;20317;-53
2022/06/04 11:44:18;;;;;;;;;;;20.60;98.00;;;;;;5075213;28;20449;-52
2022/06/04 11:46:43;;;;;;;;;;;20.60;97.70;;;;;;5074701;28;19917;-52
2022/06/04 11:49:09;;;;;;;;;;;20.60;97.70;;;;;;5074870;28;20280;-52
2022/06/04 11:51:45;;;;;;;;;;;20.60;97.70;;;;;;5074953;28;19908;-54
2022/06/04 11:54:11;;;;;;;;;;;20.60;97.70;;;;;;5056998;28;19924;-51
2022/06/04 11:56:51;;;;;;;;;;;20.60;97.70;;;;;;5074859;28;19915;-60
2022/06/04 11:59:31;;;;;;;;;;;20.60;97.80;;;;;;5074769;28;19909;-54
2022/06/04 12:02:12;;;;;;;;;;;20.60;97.80;;;;;;5074788;28;20005;-54
2022/06/04 12:04:44;;;;;;;;;;;20.60;97.80;;;;;;5074930;28;19912;-53
2022/06/04 12:07:12;;;;;;;;;;;20.60;97.80;;;;;;5074654;28;19908;-52
2022/06/04 12:09:37;;;;;;;;;;;20.60;97.80;;;;;;5075165;28;19909;-50
2022/06/04 12:12:03;;;;;;;;;;;20.60;97.80;;;;;;5057089;28;19930;-54
2022/06/04 12:14:34;;;;;;;;;;;20.60;97.80;;;;;;5056517;28;19909;-53
2022/06/04 12:17:06;;;;;;;;;;;20.60;97.80;;;;;;5074721;28;20412;-55
2022/06/04 12:25:19;;;;;;;;;;;20.60;97.80;;;;;;5074546;28;19920;-54
2022/06/04 12:27:55;;;;;;;;;;;20.60;97.80;;;;;;5074288;28;20313;-49
2022/06/04 12:30:31;;;;;;;;;;;20.60;97.80;;;;;;5074554;28;20006;-52
2022/06/04 12:32:57;;;;;;;;;;;20.60;97.80;;;;;;5074415;28;20003;-51
2022/06/04 12:35:23;;;;;;;;;;;20.60;97.80;;;;;;5056384;28;19960;-54
2022/06/04 12:37:52;;;;;;;;;;;20.70;97.80;;;;;;5074132;28;20305;-53
2022/06/04 12:40:23;;;;;;;;;;;20.60;97.80;;;;;;5074260;28;19908;-53
2022/06/04 12:43:07;;;;;;;;;;;20.60;97.80;;;;;;5074123;28;19920;-52
2022/06/04 12:45:45;;;;;;;;;;;20.70;97.80;;;;;;5074581;28;19935;-53
2022/06/04 12:48:35;;;;;;;;;;;20.70;97.80;;;;;;5074122;28;19919;-51
2022/06/04 12:51:25;;;;;;;;;;;20.70;97.80;;;;;;5061432;28;19920;-52
2022/06/04 12:53:50;;;;;;;;;;;20.60;97.80;;;;;;5073685;28;19920;-53
2022/06/04 12:56:21;;;;;;;;;;;20.70;97.80;;;;;;5074131;28;19920;-51
2022/06/04 12:58:51;;;;;;;;;;;20.70;97.80;;;;;;5056020;28;20046;-54
2022/06/04 13:01:18;;;;;;;;;;;20.60;97.80;;;;;;5073679;28;19908;-52
2022/06/04 13:03:45;;;;;;;;;;;20.70;97.80;;;;;;5073581;28;19965;-53
2022/06/04 13:06:21;;;;;;;;;;;20.70;97.80;;;;;;5073494;28;20279;-51
2022/06/04 13:08:46;;;;;;;;;;;20.70;97.80;;;;;;5073350;28;19908;-52
2022/06/04 13:11:17;;;;;;;;;;;20.70;97.80;;;;;;5073282;28;19908;-54
2022/06/04 13:14:02;;;;;;;;;;;20.70;97.80;;;;;;5073797;28;19908;-54
2022/06/04 13:16:28;;;;;;;;;;;20.70;97.80;;;;;;5055589;28;19915;-55
2022/06/04 13:19:03;;;;;;;;;;;20.70;97.80;;;;;;5074082;28;20002;-53
2022/06/04 13:21:29;;;;;;;;;;;20.70;97.80;;;;;;5073116;28;19982;-53
2022/06/04 13:23:59;;;;;;;;;;;20.70;97.80;;;;;;5056256;28;19919;-55
2022/06/04 13:26:31;;;;;;;;;;;20.70;97.80;;;;;;5073784;28;19959;-54
2022/06/04 13:28:57;;;;;;;;;;;20.70;97.80;;;;;;5073234;28;19927;-54
2022/06/04 13:31:25;;;;;;;;;;;20.70;97.80;;;;;;5073783;28;19935;-54
2022/06/04 13:33:51;;;;;;;;;;;20.70;97.80;;;;;;5055371;28;19974;-54
2022/06/04 13:36:21;;;;;;;;;;;20.70;97.80;;;;;;5073205;28;19951;-51
2022/06/04 13:38:48;;;;;;;;;;;20.70;97.80;;;;;;5073415;28;19908;-52
2022/06/04 13:42:01;;;;;;;;;;;20.70;97.80;;;;;;5073610;28;19915;-54
2022/06/04 13:44:05;;;;;;;;;;;20.70;97.80;;;;;;5072861;28;19917;-54
2022/06/04 13:46:30;;;;;;;;;;;20.70;97.80;;;;;;5055385;28;20367;-52
2022/06/04 13:49:03;;;;;;;;;;;20.70;97.80;;;;;;5057714;28;19908;-54
2022/06/04 13:51:29;;;;;;;;;;;20.70;97.80;;;;;;5077250;28;19909;-53
2022/06/04 13:53:55;;;;;;;;;;;20.70;97.80;;;;;;5077130;28;19927;-53
2022/06/04 13:56:23;;;;;;;;;;;20.70;97.80;;;;;;5077068;28;20359;-50
2022/06/04 13:58:49;;;;;;;;;;;20.70;97.80;;;;;;5077217;28;19996;-54
2022/06/04 14:01:30;;;;;;;;;;;20.70;97.80;;;;;;5076767;28;20331;-53
2022/06/04 14:06:40;;;;;;;;;;;20.70;97.80;;;;;;5077199;28;19920;-53
2022/06/04 14:09:06;;;;;;;;;;;20.70;97.80;;;;;;5077536;28;19909;-52
2022/06/04 14:11:51;;;;;;;;;;;20.70;97.80;;;;;;5077063;28;20321;-54
2022/06/04 14:14:19;;;;;;;;;;;20.70;97.80;;;;;;5076940;28;19924;-55
2022/06/04 14:16:45;;;;;;;;;;;20.70;97.80;;;;;;5076729;28;20053;-55
2022/06/04 14:19:10;;;;;;;;;;;20.70;97.80;;;;;;5076582;28;19956;-53
2022/06/04 14:21:39;;;;;;;;;;;20.70;97.80;;;;;;5076677;28;19908;-50
2022/06/04 14:24:12;;;;;;;;;;;20.70;97.80;;;;;;5076921;28;19950;-52
2022/06/04 14:26:45;;;;;;;;;;;20.70;97.80;;;;;;5076480;28;20019;-49
2022/06/04 14:29:20;;;;;;;;;;;20.70;97.80;;;;;;5076497;28;20355;-52
2022/06/04 14:31:55;;;;;;;;;;;20.70;97.80;;;;;;5058891;28;19908;-54
2022/06/04 14:34:21;;;;;;;;;;;20.80;97.80;;;;;;5076390;28;19913;-52
2022/06/04 14:36:50;;;;;;;;;;;20.70;97.80;;;;;;5076355;28;19908;-52
2022/06/04 14:39:17;;;;;;;;;;;20.70;97.80;;;;;;5076217;28;19932;-53
2022/06/04 14:41:51;;;;;;;;;;;20.80;97.80;;;;;;5058358;28;19919;-51
2022/06/04 14:44:35;;;;;;;;;;;20.70;97.80;;;;;;5076263;28;19917;-54
2022/06/04 14:47:19;;;;;;;;;;;20.70;97.80;;;;;;5076115;28;19966;-50
2022/06/04 14:50:17;;;;;;;;;;;20.80;97.80;;;;;;5058672;28;20016;-54
2022/06/04 14:52:44;;;;;;;;;;;20.70;97.80;;;;;;5021147;28;20366;-51
2022/06/04 14:55:16;;;;;;;;;;;20.80;97.80;;;;;;5076574;28;20292;-51